Time;durP1;ratioP1;P1;durP2;ratioP2;P2;SDS_P1;SDS_P2;PMS_P1;PMS_P2;Temp;Humidity;BMP_temperature;BMP_pressure;BME280_temperature;BME280_humidity;BME280_pressure;Samples;Min_cycle;Max_cycle;Signal;HPM_P1;HPM_P2
2021/07/18 00:02:07;;;;;;;3.50;1.48;;;16.50;99.90;;;;;;5079589;28;20021;-78
2021/07/18 00:04:32;;;;;;;3.45;0.65;;;16.50;99.90;;;;;;5079556;28;20029;-78
2021/07/18 00:06:58;;;;;;;1.58;0.50;;;16.50;99.90;;;;;;5061174;28;20031;-78
2021/07/18 00:09:24;;;;;;;2.35;0.47;;;16.40;99.90;;;;;;5061564;28;20055;-78
2021/07/18 00:11:49;;;;;;;3.17;0.70;;;16.40;99.90;;;;;;5079311;28;20035;-78
2021/07/18 00:14:15;;;;;;;0.75;0.20;;;16.40;99.90;;;;;;5079242;28;20024;-78
2021/07/18 00:16:41;;;;;;;3.90;0.70;;;16.40;99.90;;;;;;5079169;28;20025;-79
2021/07/18 00:19:07;;;;;;;6.20;1.40;;;16.30;99.90;;;;;;5079624;28;20035;-79
2021/07/18 00:21:33;;;;;;;3.47;0.93;;;16.40;99.90;;;;;;5079394;28;20021;-79
2021/07/18 00:23:59;;;;;;;2.53;0.77;;;16.30;99.90;;;;;;5079348;28;20031;-80
2021/07/18 00:26:25;;;;;;;2.75;1.33;;;16.30;99.90;;;;;;5061320;28;20020;-80
2021/07/18 00:28:50;;;;;;;3.10;1.05;;;16.30;99.90;;;;;;5060843;28;20078;-80
2021/07/18 00:31:16;;;;;;;3.50;0.88;;;16.90;99.90;;;;;;5061350;28;20039;-79
2021/07/18 00:33:42;;;;;;;6.57;0.80;;;16.30;99.90;;;;;;5061829;28;20028;-80
2021/07/18 00:36:07;;;;;;;4.97;0.80;;;16.20;99.90;;;;;;5079369;28;20021;-80
2021/07/18 00:38:33;;;;;;;2.80;1.00;;;16.30;99.90;;;;;;5078146;28;20020;-80
2021/07/18 00:40:59;;;;;;;7.88;1.10;;;16.20;99.90;;;;;;5060962;28;20020;-80
2021/07/18 00:43:24;;;;;;;4.10;1.17;;;16.20;99.90;;;;;;5060581;28;20501;-80
2021/07/18 00:46:02;;;;;;;1.77;0.73;;;16.20;99.90;;;;;;5060689;28;20091;-79
2021/07/18 00:48:30;;;;;;;5.80;1.38;;;16.10;99.90;;;;;;5077842;28;20024;-78
2021/07/18 00:50:57;;;;;;;2.30;0.95;;;16.10;99.90;;;;;;5079065;28;20040;-78
2021/07/18 00:53:30;;;;;;;2.92;1.10;;;16.10;99.90;;;;;;5078411;28;20054;-78
2021/07/18 00:55:55;;;;;;;5.65;1.40;;;16.00;99.90;;;;;;5076853;28;20028;-78
2021/07/18 00:58:24;;;;;;;5.20;1.05;;;16.00;99.90;;;;;;5060284;28;20025;-78
2021/07/18 01:00:50;;;;;;;2.22;0.85;;;16.00;99.90;;;;;;5059793;28;20024;-78
2021/07/18 01:03:17;;;;;;;2.88;0.90;;;16.00;99.90;;;;;;5078733;28;20071;-78
2021/07/18 01:05:43;;;;;;;2.85;0.77;;;16.00;99.90;;;;;;5059903;28;20025;-78
2021/07/18 01:08:08;;;;;;;2.85;1.00;;;15.90;99.90;;;;;;5077235;28;20031;-79
2021/07/18 01:10:34;;;;;;;3.50;1.10;;;15.90;99.90;;;;;;5078149;28;20451;-78
2021/07/18 01:13:00;;;;;;;4.28;1.58;;;15.90;99.90;;;;;;5077386;28;20036;-79
2021/07/18 01:15:26;;;;;;;1.88;0.85;;;16.00;99.90;;;;;;5077347;28;20107;-79
2021/07/18 01:17:51;;;;;;;4.72;1.10;;;15.90;99.90;;;;;;5077962;28;20040;-79
2021/07/18 01:20:17;;;;;;;3.50;0.82;;;15.90;99.90;;;;;;5060349;28;20428;-79
2021/07/18 01:22:43;;;;;;;5.53;1.13;;;15.90;99.90;;;;;;5078587;28;20025;-79
2021/07/18 01:25:10;;;;;;;3.10;0.73;;;15.80;99.90;;;;;;5060331;28;20409;-79
2021/07/18 01:27:37;;;;;;;2.33;0.85;;;15.80;99.90;;;;;;5060059;28;20104;-80
2021/07/18 01:30:07;;;;;;;3.97;1.23;;;15.70;99.90;;;;;;5059685;28;20107;-80
2021/07/18 01:32:33;;;;;;;2.78;0.65;;;15.70;99.90;;;;;;5058768;28;20027;-80
2021/07/18 01:34:59;;;;;;;4.10;1.25;;;15.70;99.90;;;;;;5077635;28;20036;-80
2021/07/18 01:37:25;;;;;;;2.58;0.77;;;15.60;99.90;;;;;;5078102;28;20025;-80
2021/07/18 01:39:50;;;;;;;8.57;0.75;;;15.60;99.90;;;;;;5060451;28;20389;-80
2021/07/18 01:42:16;;;;;;;2.15;0.90;;;15.60;99.90;;;;;;5060451;28;20020;-80
2021/07/18 01:44:43;;;;;;;4.28;1.08;;;15.60;99.90;;;;;;5059729;28;20027;-80
2021/07/18 01:47:09;;;;;;;4.63;1.27;;;15.60;99.90;;;;;;5077933;28;20489;-80
2021/07/18 01:49:35;;;;;;;5.75;1.05;;;15.50;99.90;;;;;;5059536;28;20032;-80
2021/07/18 01:52:00;;;;;;;3.72;1.08;;;15.50;99.90;;;;;;5077357;28;20024;-80
2021/07/18 01:54:26;;;;;;;2.78;1.15;;;15.50;99.90;;;;;;5078019;28;20108;-79
2021/07/18 01:56:51;;;;;;;1.85;0.90;;;15.50;99.90;;;;;;5059625;28;20508;-80
2021/07/18 01:59:18;;;;;;;3.90;1.45;;;15.50;99.90;;;;;;5058756;28;20111;-79
2021/07/18 02:01:44;;;;;;;3.40;1.15;;;15.50;99.90;;;;;;5059477;28;20013;-79
2021/07/18 02:04:12;;;;;;;4.28;0.93;;;15.50;99.90;;;;;;5077342;28;20028;-79
2021/07/18 02:06:39;;;;;;;2.38;0.80;;;15.50;99.90;;;;;;5059659;28;20024;-79
2021/07/18 02:09:05;;;;;;;5.72;1.52;;;15.40;99.90;;;;;;5059346;28;20046;-80
2021/07/18 02:11:30;;;;;;;5.07;2.03;;;15.40;99.90;;;;;;5078457;28;20104;-80
2021/07/18 02:13:58;;;;;;;3.53;1.90;;;15.40;99.90;;;;;;5077265;28;20109;-80
2021/07/18 02:16:27;;;;;;;8.38;2.13;;;15.40;99.90;;;;;;5076491;28;20032;-79
2021/07/18 02:18:53;;;;;;;5.55;1.75;;;15.40;99.90;;;;;;5075380;28;20021;-79
2021/07/18 02:21:22;;;;;;;5.05;1.58;;;15.30;99.90;;;;;;5077892;28;20033;-79
2021/07/18 02:23:49;;;;;;;5.72;1.98;;;15.40;99.90;;;;;;5060427;28;20425;-79
2021/07/18 02:26:16;;;;;;;6.60;1.65;;;15.30;99.90;;;;;;5076997;28;20029;-79
2021/07/18 02:28:42;;;;;;;6.13;1.98;;;15.30;99.90;;;;;;5077419;28;20024;-79
2021/07/18 02:31:09;;;;;;;7.03;2.13;;;15.30;99.90;;;;;;5078221;28;20039;-79
2021/07/18 02:33:35;;;;;;;5.97;2.00;;;15.30;99.90;;;;;;5076589;28;20471;-79
2021/07/18 02:36:02;;;;;;;4.22;2.30;;;15.30;99.90;;;;;;5076035;28;20029;-79
2021/07/18 02:38:29;;;;;;;7.18;2.28;;;17.00;99.90;;;;;;5061704;28;20016;-79
2021/07/18 02:40:55;;;;;;;8.23;2.05;;;15.30;99.90;;;;;;5081254;28;20404;-78
2021/07/18 02:43:21;;;;;;;7.28;1.80;;;15.30;99.90;;;;;;5081440;28;20028;-78
2021/07/18 02:45:46;;;;;;;5.45;1.85;;;15.30;99.90;;;;;;5063281;28;20043;-80
2021/07/18 02:48:12;;;;;;;5.60;1.90;;;15.30;99.90;;;;;;5081054;28;20028;-79
2021/07/18 02:50:38;;;;;;;5.25;2.22;;;15.30;99.90;;;;;;5081497;28;20029;-79
2021/07/18 02:53:03;;;;;;;7.93;2.40;;;15.20;99.90;;;;;;5080972;28;20028;-79
2021/07/18 02:55:29;;;;;;;6.03;2.03;;;15.20;99.90;;;;;;5080706;28;20021;-78
2021/07/18 02:57:54;;;;;;;7.35;2.33;;;15.20;99.90;;;;;;5062886;28;20035;-79
2021/07/18 03:00:23;;;;;;;4.47;2.13;;;15.20;99.90;;;;;;5080794;28;20021;-79
2021/07/18 03:02:49;;;;;;;4.65;1.88;;;15.20;99.90;;;;;;5081655;28;20506;-79
2021/07/18 03:05:15;;;;;;;4.30;2.10;;;15.10;99.90;;;;;;5063585;28;20060;-80
2021/07/18 03:07:42;;;;;;;5.30;1.98;;;15.10;99.90;;;;;;5063056;28;20047;-80
2021/07/18 03:10:09;;;;;;;3.75;1.88;;;15.10;99.90;;;;;;5062866;28;20028;-80
2021/07/18 03:12:35;;;;;;;5.32;2.00;;;15.10;99.90;;;;;;5077893;28;20071;-79
2021/07/18 03:15:04;;;;;;;5.65;2.28;;;15.10;99.90;;;;;;5077815;28;20485;-78
2021/07/18 03:17:29;;;;;;;8.75;2.65;;;15.10;99.90;;;;;;5078427;28;20028;-79
2021/07/18 03:19:55;;;;;;;5.85;2.78;;;15.10;99.90;;;;;;5078212;28;20073;-79
2021/07/18 03:22:21;;;;;;;6.72;2.20;;;15.10;99.90;;;;;;5076779;28;20058;-78
2021/07/18 03:24:48;;;;;;;7.65;2.40;;;15.10;99.90;;;;;;5058028;28;20066;-78
2021/07/18 03:27:14;;;;;;;4.80;2.15;;;15.00;99.90;;;;;;5058588;28;20060;-78
2021/07/18 03:29:39;;;;;;;7.18;2.22;;;15.00;99.90;;;;;;5078788;28;20066;-78
2021/07/18 03:32:05;;;;;;;7.13;2.65;;;15.10;99.90;;;;;;5060752;28;20123;-78
2021/07/18 03:34:31;;;;;;;8.48;2.20;;;15.00;99.90;;;;;;5078368;28;20020;-79
2021/07/18 03:36:57;;;;;;;4.88;2.08;;;15.00;99.90;;;;;;5078940;28;20031;-78
2021/07/18 03:39:22;;;;;;;6.72;2.92;;;15.00;99.90;;;;;;5061144;28;20009;-79
2021/07/18 03:41:48;;;;;;;3.85;1.98;;;14.90;99.90;;;;;;5059920;28;20037;-78
2021/07/18 03:44:13;;;;;;;7.15;2.97;;;14.90;99.90;;;;;;5078355;28;20029;-78
2021/07/18 03:46:39;;;;;;;9.80;2.00;;;14.90;99.90;;;;;;5062185;28;20029;-79
2021/07/18 03:49:05;;;;;;;5.78;2.33;;;14.90;99.90;;;;;;5060360;28;20166;-80
2021/07/18 03:51:30;;;;;;;7.60;2.53;;;14.90;99.90;;;;;;5061313;28;20383;-79
2021/07/18 03:53:56;;;;;;;5.70;2.20;;;14.90;99.90;;;;;;5078491;28;20063;-77
2021/07/18 03:56:22;;;;;;;6.00;2.40;;;14.90;99.90;;;;;;5057197;28;20028;-77
2021/07/18 03:58:52;;;;;;;5.20;2.10;;;15.00;99.90;;;;;;5057057;28;20016;-77
2021/07/18 04:01:18;;;;;;;7.22;2.75;;;14.90;99.90;;;;;;5075068;28;20028;-77
2021/07/18 04:03:46;;;;;;;6.45;2.47;;;15.00;99.90;;;;;;5075532;28;20019;-77
2021/07/18 04:06:14;;;;;;;7.28;2.65;;;15.00;99.90;;;;;;5057114;28;20021;-77
2021/07/18 04:08:40;;;;;;;4.55;2.13;;;15.00;99.90;;;;;;5057256;28;20165;-77
2021/07/18 04:11:05;;;;;;;5.65;2.15;;;15.00;99.90;;;;;;5075165;28;20023;-77
2021/07/18 04:13:31;;;;;;;6.10;2.53;;;15.00;99.90;;;;;;5056972;28;20028;-78
2021/07/18 04:15:56;;;;;;;6.82;2.33;;;15.00;99.90;;;;;;5074781;28;20462;-78
2021/07/18 04:18:22;;;;;;;9.20;2.92;;;15.00;99.90;;;;;;5074735;28;20035;-77
2021/07/18 04:20:47;;;;;;;10.43;4.20;;;15.10;99.90;;;;;;5074730;28;20028;-77
2021/07/18 04:23:14;;;;;;;8.38;3.20;;;15.10;99.90;;;;;;5074933;28;20026;-77
2021/07/18 04:25:39;;;;;;;6.93;2.80;;;15.20;99.90;;;;;;5056710;28;20025;-77
2021/07/18 04:28:05;;;;;;;6.40;2.90;;;15.20;99.90;;;;;;5074530;28;20520;-77
2021/07/18 04:30:31;;;;;;;12.40;3.80;;;15.30;99.90;;;;;;5074572;28;20028;-77
2021/07/18 04:32:56;;;;;;;6.82;2.55;;;15.30;99.90;;;;;;5074759;28;20522;-77
2021/07/18 04:35:22;;;;;;;8.43;3.30;;;15.40;99.90;;;;;;5075414;28;20084;-77
2021/07/18 04:37:47;;;;;;;5.43;2.70;;;15.50;99.90;;;;;;5074796;28;20025;-77
2021/07/18 04:40:13;;;;;;;9.18;2.30;;;15.50;99.90;;;;;;5056547;28;20120;-77
2021/07/18 04:42:39;;;;;;;5.20;2.15;;;15.60;99.90;;;;;;5074686;28;20024;-77
2021/07/18 04:45:06;;;;;;;9.65;2.35;;;15.60;99.90;;;;;;5075152;28;20355;-78
2021/07/18 04:47:31;;;;;;;8.82;1.98;;;15.70;99.90;;;;;;5056616;28;20082;-77
2021/07/18 04:49:58;;;;;;;5.20;2.03;;;15.80;99.90;;;;;;5075187;28;20032;-77
2021/07/18 04:52:23;;;;;;;4.32;1.75;;;15.80;99.90;;;;;;5074629;28;20039;-77
2021/07/18 04:54:49;;;;;;;3.95;1.65;;;15.90;99.90;;;;;;5074703;28;20025;-77
2021/07/18 04:57:14;;;;;;;3.42;1.80;;;16.00;99.90;;;;;;5075151;28;20481;-77
2021/07/18 04:59:40;;;;;;;5.75;1.77;;;16.10;99.90;;;;;;5075649;28;20050;-77
2021/07/18 05:02:05;;;;;;;4.97;1.92;;;16.10;99.90;;;;;;5078662;28;20457;-77
2021/07/18 05:04:31;;;;;;;4.55;2.30;;;16.20;99.90;;;;;;5059679;28;20021;-77
2021/07/18 05:06:56;;;;;;;8.00;1.75;;;16.30;99.90;;;;;;5060252;28;20048;-78
2021/07/18 05:09:22;;;;;;;4.72;2.10;;;16.40;99.90;;;;;;5064920;28;20078;-78
2021/07/18 05:11:47;;;;;;;5.53;2.15;;;16.50;99.90;;;;;;5080429;28;20039;-78
2021/07/18 05:14:13;;;;;;;4.53;1.85;;;16.60;99.90;;;;;;5079639;28;20036;-78
2021/07/18 05:16:38;;;;;;;6.40;2.65;;;16.70;99.90;;;;;;5076547;28;20465;-77
2021/07/18 05:19:04;;;;;;;5.85;2.25;;;16.80;99.90;;;;;;5074891;28;20048;-77
2021/07/18 05:21:30;;;;;;;5.95;2.25;;;16.90;99.90;;;;;;5059019;28;20078;-77
2021/07/18 05:23:56;;;;;;;4.07;2.13;;;17.00;99.90;;;;;;5059568;28;20025;-77
2021/07/18 05:26:22;;;;;;;4.93;1.75;;;17.10;99.90;;;;;;5074576;28;20028;-77
2021/07/18 05:28:47;;;;;;;5.57;2.45;;;17.20;99.90;;;;;;5073506;28;20090;-77
2021/07/18 05:31:13;;;;;;;4.03;1.83;;;17.30;99.90;;;;;;5073902;28;20031;-78
2021/07/18 05:33:39;;;;;;;4.90;2.15;;;17.30;99.90;;;;;;5075522;28;20063;-79
2021/07/18 05:36:07;;;;;;;5.07;1.48;;;17.50;99.90;;;;;;5056494;28;20470;-78
2021/07/18 05:38:36;;;;;;;6.90;2.08;;;17.60;99.90;;;;;;5074924;28;20470;-77
2021/07/18 05:41:01;;;;;;;;;;;17.70;99.90;;;;;;5074662;28;20017;-75
2021/07/18 05:43:27;;;;;;;7.38;1.40;;;17.80;99.90;;;;;;5056553;28;19954;-75
2021/07/18 05:45:52;;;;;;;4.68;1.50;;;17.90;99.90;;;;;;5056046;28;20036;-75
2021/07/18 05:48:23;;;;;;;5.60;1.60;;;17.90;99.90;;;;;;5073513;28;20032;-75
2021/07/18 05:50:49;;;;;;;6.05;2.05;;;18.10;99.90;;;;;;5055252;28;20024;-75
2021/07/18 05:53:14;;;;;;;3.15;1.52;;;18.20;99.90;;;;;;5073218;28;20501;-76
2021/07/18 05:55:40;;;;;;;3.90;1.73;;;18.30;99.90;;;;;;5055140;28;20024;-76
2021/07/18 05:58:05;;;;;;;4.85;1.67;;;18.40;99.90;;;;;;5055161;28;20021;-76
2021/07/18 06:00:30;;;;;;;4.75;1.73;;;18.50;99.90;;;;;;5073365;28;20024;-76
2021/07/18 06:02:56;;;;;;;3.92;1.60;;;18.60;99.90;;;;;;5055927;28;20021;-75
2021/07/18 06:05:21;;;;;;;5.45;1.60;;;18.60;99.90;;;;;;5055700;28;20034;-75
2021/07/18 06:07:47;;;;;;;6.00;1.55;;;18.80;99.90;;;;;;5073895;28;20036;-75
2021/07/18 06:10:13;;;;;;;3.13;1.17;;;20.80;99.90;;;;;;5055788;28;20394;-76
2021/07/18 06:12:38;;;;;;;4.55;1.45;;;19.00;99.90;;;;;;5075940;28;20021;-76
2021/07/18 06:15:05;;;;;;;5.95;1.40;;;19.10;99.90;;;;;;5078871;28;20029;-78
2021/07/18 06:17:32;;;;;;;5.43;0.95;;;19.10;99.90;;;;;;5080630;28;20104;-78
2021/07/18 06:19:58;;;;;;;4.95;1.35;;;19.30;99.90;;;;;;5080456;28;20035;-78
2021/07/18 06:22:23;;;;;;;5.15;1.02;;;19.40;99.90;;;;;;5062907;28;20016;-78
2021/07/18 06:24:49;;;;;;;2.03;1.13;;;19.40;99.90;;;;;;5080507;28;20023;-79
2021/07/18 06:27:14;;;;;;;4.35;1.05;;;19.50;99.90;;;;;;5081342;28;20020;-79
2021/07/18 06:29:40;;;;;;;5.05;1.02;;;19.60;99.90;;;;;;5062800;28;20031;-79
2021/07/18 06:32:06;;;;;;;2.65;0.98;;;19.70;99.90;;;;;;5061756;28;20090;-79
2021/07/18 06:34:32;;;;;;;5.22;1.08;;;19.80;99.90;;;;;;5079795;28;20024;-78
2021/07/18 06:36:58;;;;;;;4.88;1.02;;;19.90;99.90;;;;;;5078030;28;20029;-78
2021/07/18 06:39:24;;;;;;;5.88;0.90;;;20.00;99.90;;;;;;5077653;28;20547;-78
2021/07/18 06:41:49;;;;;;;1.83;0.88;;;20.10;99.90;;;;;;5061610;28;20028;-78
2021/07/18 06:44:15;;;;;;;3.08;1.30;;;20.20;99.90;;;;;;5079115;28;20029;-78
2021/07/18 06:46:41;;;;;;;1.95;1.10;;;20.20;99.90;;;;;;5061239;28;20029;-78
2021/07/18 06:49:07;;;;;;;3.35;0.95;;;20.30;99.90;;;;;;5060193;28;20028;-78
2021/07/18 06:51:33;;;;;;;6.13;1.40;;;20.50;99.90;;;;;;5064049;23;20474;-80
2021/07/18 06:53:59;;;;;;;7.28;0.90;;;20.60;99.90;;;;;;5039250;28;20018;-79
2021/07/18 06:56:25;;;;;;;2.28;0.85;;;20.70;99.90;;;;;;5037557;28;20037;-79
2021/07/18 06:58:50;;;;;;;1.95;0.40;;;21.10;99.90;;;;;;5048426;28;20028;-79
2021/07/18 07:01:16;;;;;;;1.98;0.45;;;20.90;99.90;;;;;;5057517;28;20035;-80
2021/07/18 07:03:42;;;;;;;3.03;0.88;;;21.20;99.90;;;;;;5057344;28;20051;-79
2021/07/18 07:06:08;;;;;;;3.35;0.60;;;21.10;99.90;;;;;;5056910;28;20080;-77
2021/07/18 07:08:33;;;;;;;0.95;0.20;;;21.20;99.90;;;;;;5055074;28;20037;-77
2021/07/18 07:10:59;;;;;;;3.58;0.70;;;21.30;99.90;;;;;;5056301;28;20028;-76
2021/07/18 07:13:24;;;;;;;2.85;0.60;;;21.40;99.90;;;;;;5055206;28;20017;-77
2021/07/18 07:15:50;;;;;;;4.32;0.60;;;21.40;99.90;;;;;;5060237;28;20020;-78
2021/07/18 07:18:15;;;;;;;1.38;0.60;;;21.50;99.90;;;;;;5074481;28;20024;-77
2021/07/18 07:20:41;;;;;;;3.85;0.35;;;21.60;99.90;;;;;;5075877;28;20017;-77
2021/07/18 07:23:06;;;;;;;2.40;0.63;;;21.80;99.90;;;;;;5075079;28;20052;-77
2021/07/18 07:25:32;;;;;;;1.33;0.43;;;21.80;99.90;;;;;;5077031;28;20095;-75
2021/07/18 07:27:58;;;;;;;3.38;0.35;;;22.00;99.90;;;;;;5076963;28;20044;-75
2021/07/18 07:30:23;;;;;;;2.33;0.47;;;22.10;99.90;;;;;;5074821;28;20028;-75
2021/07/18 07:32:49;;;;;;;3.45;0.30;;;22.20;99.90;;;;;;5066199;28;20036;-74
2021/07/18 07:35:15;;;;;;;2.47;0.20;;;22.30;99.90;;;;;;5055771;28;20500;-74
2021/07/18 07:37:44;;;;;;;1.20;0.10;;;22.50;99.90;;;;;;5054475;28;20025;-74
2021/07/18 07:40:12;;;;;;;2.47;0.30;;;22.60;99.90;;;;;;5062125;28;20029;-75
2021/07/18 07:42:38;;;;;;;2.72;0.47;;;22.70;99.90;;;;;;5077421;28;20029;-75
2021/07/18 07:45:05;;;;;;;1.42;0.10;;;23.30;99.90;;;;;;5074819;28;20497;-75
2021/07/18 07:47:31;;;;;;;0.30;0.10;;;23.00;99.90;;;;;;5074569;28;20490;-75
2021/07/18 07:49:56;;;;;;;0.75;0.00;;;23.00;99.90;;;;;;5074412;28;20025;-75
2021/07/18 07:52:22;;;;;;;0.88;0.00;;;23.10;99.90;;;;;;5075916;28;20122;-75
2021/07/18 07:54:48;;;;;;;3.45;0.00;;;23.20;99.90;;;;;;5061526;28;20033;-75
2021/07/18 07:57:13;;;;;;;0.45;0.00;;;23.40;99.90;;;;;;5062418;28;20025;-75
2021/07/18 07:59:39;;;;;;;0.45;0.05;;;23.40;99.90;;;;;;5075802;28;20021;-75
2021/07/18 08:02:04;;;;;;;2.78;0.00;;;23.60;99.90;;;;;;5076243;28;20031;-75
2021/07/18 08:04:30;;;;;;;0.17;0.00;;;24.00;99.90;;;;;;5075525;28;20029;-75
2021/07/18 08:06:57;;;;;;;2.85;0.00;;;23.90;99.90;;;;;;5076008;28;20074;-75
2021/07/18 08:09:23;;;;;;;0.55;0.10;;;23.80;99.90;;;;;;5073878;28;20071;-75
2021/07/18 08:11:49;;;;;;;2.08;0.10;;;23.90;99.90;;;;;;5074571;28;20074;-75
2021/07/18 08:14:15;;;;;;;1.63;0.00;;;24.00;99.90;;;;;;5075927;28;20059;-75
2021/07/18 08:16:41;;;;;;;0.60;0.00;;;24.10;99.90;;;;;;5075621;28;20146;-75
2021/07/18 08:19:06;;;;;;;1.95;0.22;;;24.20;99.90;;;;;;5074264;28;20028;-76
2021/07/18 08:21:32;;;;;;;0.15;0.00;;;24.20;99.90;;;;;;5075136;28;20359;-75
2021/07/18 08:23:58;;;;;;;1.73;0.00;;;24.30;99.90;;;;;;5075357;28;20062;-74
2021/07/18 08:26:23;;;;;;;2.22;0.00;;;25.10;99.90;;;;;;5076029;28;20494;-75
2021/07/18 08:28:49;;;;;;;0.40;0.22;;;24.50;99.90;;;;;;5075045;28;20036;-75
2021/07/18 08:31:17;;;;;;;1.35;0.30;;;24.50;99.90;;;;;;5074340;28;20103;-76
2021/07/18 08:33:44;;;;;;;1.30;0.00;;;24.60;99.90;;;;;;5074503;28;20036;-75
2021/07/18 08:36:11;;;;;;;1.25;0.25;;;24.60;99.90;;;;;;5072850;28;20016;-75
2021/07/18 08:38:36;;;;;;;2.05;0.00;;;24.60;99.90;;;;;;5072831;28;20048;-75
2021/07/18 08:41:02;;;;;;;1.52;0.00;;;24.70;99.90;;;;;;5074129;28;20055;-74
2021/07/18 08:43:28;;;;;;;0.32;0.32;;;24.70;99.90;;;;;;5075156;28;20465;-76
2021/07/18 08:45:55;;;;;;;2.15;0.00;;;24.90;99.90;;;;;;5073591;28;20021;-74
2021/07/18 08:48:20;;;;;;;3.70;0.10;;;24.90;99.90;;;;;;5073196;28;20077;-76
2021/07/18 08:50:48;;;;;;;0.65;0.00;;;25.00;99.90;;;;;;5073357;28;20477;-76
2021/07/18 08:53:14;;;;;;;0.35;0.20;;;25.00;99.90;;;;;;5074188;28;20029;-76
2021/07/18 08:55:42;;;;;;;1.63;0.00;;;25.00;99.90;;;;;;5072283;28;20035;-75
2021/07/18 08:58:08;;;;;;;2.17;0.25;;;25.20;99.90;;;;;;5074744;28;20493;-75
2021/07/18 09:00:34;;;;;;;1.45;0.10;;;25.40;99.90;;;;;;5077314;28;20019;-77
2021/07/18 09:03:00;;;;;;;2.03;0.20;;;25.40;99.90;;;;;;5061730;28;20025;-77
2021/07/18 09:05:26;;;;;;;2.78;0.30;;;25.50;99.90;;;;;;5058297;28;20542;-75
2021/07/18 09:07:56;;;;;;;1.30;0.45;;;25.40;99.90;;;;;;5057810;28;20441;-75
2021/07/18 09:10:27;;;;;;;1.02;0.10;;;25.40;99.90;;;;;;5059007;28;20021;-77
2021/07/18 09:13:07;;;;;;;1.63;0.08;;;25.50;99.90;;;;;;5058691;28;20029;-77
2021/07/18 09:15:38;;;;;;;1.98;0.00;;;25.60;99.90;;;;;;5065459;28;20056;-77
2021/07/18 09:18:08;;;;;;;1.05;0.10;;;25.70;99.90;;;;;;5077817;28;20044;-77
2021/07/18 09:21:00;;;;;;;0.22;0.10;;;25.80;99.90;;;;;;5077766;28;20028;-77
2021/07/18 09:23:30;;;;;;;0.15;0.00;;;25.80;99.90;;;;;;5076552;28;20092;-77
2021/07/18 09:26:16;;;;;;;0.93;0.00;;;25.70;99.50;;;;;;5077641;28;20035;-77
2021/07/18 09:28:41;;;;;;;0.32;0.20;;;25.70;99.80;;;;;;5077428;28;20024;-77
2021/07/18 09:31:30;;;;;;;1.13;0.03;;;25.80;99.90;;;;;;5072921;28;20059;-75
2021/07/18 09:34:19;;;;;;;1.48;0.15;;;25.80;99.20;;;;;;5057900;28;20434;-76
2021/07/18 09:36:46;;;;;;;2.28;0.00;;;26.00;99.90;;;;;;5057378;28;20107;-76
2021/07/18 09:39:13;;;;;;;1.10;0.00;;;26.20;98.90;;;;;;5057341;28;20419;-76
2021/07/18 09:41:41;;;;;;;0.75;0.00;;;26.20;98.10;;;;;;5057759;28;20021;-76
2021/07/18 09:44:07;;;;;;;0.40;0.00;;;26.10;98.50;;;;;;5057668;28;20421;-76
2021/07/18 09:46:33;;;;;;;4.80;0.28;;;26.20;98.20;;;;;;5057856;28;20040;-76
2021/07/18 09:49:03;;;;;;;1.55;0.05;;;26.40;99.70;;;;;;5058817;28;20108;-77
2021/07/18 09:51:30;;;;;;;0.38;0.00;;;26.60;99.90;;;;;;5057837;28;20036;-76
2021/07/18 09:54:10;;;;;;;1.42;0.00;;;26.60;96.30;;;;;;5058081;28;20013;-76
2021/07/18 09:56:37;;;;;;;1.50;0.00;;;26.70;97.90;;;;;;5057781;28;20060;-76
2021/07/18 09:59:05;;;;;;;0.85;0.13;;;26.70;97.00;;;;;;5056225;28;20401;-76
2021/07/18 10:01:33;;;;;;;2.17;0.20;;;26.90;97.10;;;;;;5056008;28;20013;-76
2021/07/18 10:03:59;;;;;;;1.73;0.00;;;26.90;94.80;;;;;;5057715;28;20016;-76
2021/07/18 10:06:27;;;;;;;0.25;0.00;;;26.90;93.50;;;;;;5057406;28;20028;-76
2021/07/18 10:08:55;;;;;;;1.23;0.38;;;27.00;93.60;;;;;;5057376;28;20040;-76
2021/07/18 10:11:22;;;;;;;;;;;27.10;93.00;;;;;;5059121;28;20021;-76
2021/07/18 10:13:49;;;;;;;3.60;0.30;;;27.10;92.50;;;;;;5057954;28;20390;-76
2021/07/18 10:16:16;;;;;;;0.35;0.05;;;27.20;93.20;;;;;;5057190;28;20025;-76
2021/07/18 10:18:46;;;;;;;1.50;0.00;;;27.20;92.60;;;;;;5056140;28;20021;-76
2021/07/18 10:21:14;;;;;;;2.83;0.00;;;27.40;93.10;;;;;;5070908;28;20101;-76
2021/07/18 10:23:42;;;;;;;2.45;0.00;;;27.40;92.10;;;;;;5076361;28;20013;-76
2021/07/18 10:26:14;;;;;;;0.75;0.00;;;27.50;90.80;;;;;;5073442;28;20036;-76
2021/07/18 10:28:40;;;;;;;0.32;0.00;;;27.60;90.20;;;;;;5073111;28;20035;-76
2021/07/18 10:31:18;;;;;;;2.55;0.00;;;27.60;89.80;;;;;;5072319;28;20029;-77
2021/07/18 10:33:47;;;;;;;0.60;0.00;;;27.80;90.50;;;;;;5077774;28;20386;-77
2021/07/18 10:36:13;;;;;;;0.47;0.00;;;27.90;89.90;;;;;;5076454;28;20454;-78
2021/07/18 10:38:38;;;;;;;0.65;0.38;;;27.90;86.60;;;;;;5077225;28;20024;-77
2021/07/18 10:41:04;;;;;;;1.05;0.05;;;28.00;82.30;;;;;;5076317;28;20166;-78
2021/07/18 10:43:40;;;;;;;0.73;0.00;;;27.90;83.10;;;;;;5073635;28;20017;-78
2021/07/18 10:46:11;;;;;;;0.10;0.00;;;28.00;89.80;;;;;;5073055;28;20039;-76
2021/07/18 10:48:48;;;;;;;1.27;0.10;;;28.20;85.40;;;;;;5073880;28;20017;-76
2021/07/18 10:51:17;;;;;;;0.82;0.22;;;28.30;84.50;;;;;;5076524;28;20049;-76
2021/07/18 10:53:44;;;;;;;1.85;0.05;;;28.50;84.10;;;;;;5076728;28;20386;-77
2021/07/18 10:56:10;;;;;;;2.00;0.10;;;28.50;83.90;;;;;;5076715;28;20390;-77
2021/07/18 10:58:40;;;;;;;0.00;0.00;;;28.70;80.40;;;;;;5076797;28;20016;-77
2021/07/18 11:01:12;;;;;;;3.78;0.45;;;28.80;79.50;;;;;;5080659;28;20051;-77
2021/07/18 11:03:39;;;;;;;2.08;0.00;;;28.90;82.60;;;;;;5079830;28;20117;-77
2021/07/18 11:06:30;;;;;;;0.73;0.00;;;29.00;79.40;;;;;;5064608;28;20029;-76
2021/07/18 11:09:18;;;;;;;0.32;0.00;;;29.00;73.30;;;;;;5065857;28;20043;-78
2021/07/18 11:11:53;;;;;;;0.73;0.00;;;29.10;79.00;;;;;;5060449;28;20049;-78
2021/07/18 11:14:36;;;;;;;1.73;0.00;;;29.20;78.30;;;;;;5062615;28;20143;-78
2021/07/18 11:17:07;;;;;;;0.88;0.00;;;29.20;78.50;;;;;;5060066;28;20025;-79
2021/07/18 11:19:38;;;;;;;0.30;0.20;;;29.30;76.60;;;;;;5061290;28;20029;-78
2021/07/18 11:22:06;;;;;;;0.30;0.00;;;29.30;77.00;;;;;;5078657;28;20028;-78
2021/07/18 11:24:55;;;;;;;4.65;0.15;;;29.40;78.40;;;;;;5080730;28;20470;-79
2021/07/18 11:27:30;;;;;;;0.52;0.00;;;29.60;76.80;;;;;;5075666;28;20366;-79
2021/07/18 11:29:59;;;;;;;3.13;0.00;;;29.80;75.60;;;;;;5076619;28;20355;-78
2021/07/18 11:32:30;;;;;;;2.92;0.00;;;29.80;77.20;;;;;;5074689;28;20054;-77
2021/07/18 11:34:56;;;;;;;1.25;0.00;;;29.90;72.90;;;;;;5072398;28;20028;-77
2021/07/18 11:37:23;;;;;;;3.10;0.10;;;30.10;74.40;;;;;;5050956;28;20017;-77
2021/07/18 11:39:49;;;;;;;1.65;0.03;;;30.10;71.80;;;;;;5055425;28;20036;-77
2021/07/18 11:42:16;;;;;;;0.82;0.00;;;30.30;72.70;;;;;;5055919;28;20017;-77
2021/07/18 11:44:45;;;;;;;2.10;0.17;;;30.40;72.60;;;;;;5055312;28;20078;-78
2021/07/18 11:47:15;;;;;;;1.77;0.10;;;30.60;71.10;;;;;;5056193;28;20119;-78
2021/07/18 11:49:44;;;;;;;2.22;0.00;;;30.70;74.10;;;;;;5056694;28;20039;-78
2021/07/18 11:52:11;;;;;;;0.57;0.00;;;30.80;71.10;;;;;;5066914;28;20530;-78
2021/07/18 11:54:37;;;;;;;1.38;0.22;;;30.80;68.70;;;;;;5066770;28;20477;-78
2021/07/18 11:57:09;;;;;;;1.67;0.00;;;30.90;68.40;;;;;;5062233;28;20036;-77
2021/07/18 11:59:37;;;;;;;0.50;0.35;;;31.10;67.50;;;;;;5053904;28;20029;-77
2021/07/18 12:02:05;;;;;;;0.47;0.00;;;31.00;65.60;;;;;;5053968;28;20017;-77
2021/07/18 12:04:31;;;;;;;1.88;0.43;;;31.00;66.60;;;;;;5056473;28;20709;-77
2021/07/18 12:06:59;;;;;;;0.75;0.00;;;31.10;65.50;;;;;;5055006;28;20028;-76
2021/07/18 12:09:26;;;;;;;;;;;31.20;65.60;;;;;;5055603;28;20017;-77
2021/07/18 12:11:53;;;;;;;0.45;0.20;;;31.30;66.30;;;;;;5053827;28;19905;-77
2021/07/18 12:14:20;;;;;;;1.65;0.00;;;31.30;64.50;;;;;;5055614;28;20086;-77
2021/07/18 12:16:46;;;;;;;1.30;0.00;;;31.40;63.70;;;;;;5053523;28;20029;-77
2021/07/18 12:19:14;;;;;;;1.05;0.25;;;31.10;63.90;;;;;;5055591;28;20079;-77
2021/07/18 12:21:42;;;;;;;1.67;0.00;;;31.30;66.40;;;;;;5055868;28;20127;-77
2021/07/18 12:24:27;;;;;;;3.42;0.00;;;31.50;63.90;;;;;;5077575;28;20021;-77
2021/07/18 12:26:53;;;;;;;3.40;0.15;;;31.80;65.00;;;;;;5079798;28;20051;-77
2021/07/18 12:29:20;;;;;;;1.45;0.00;;;31.80;62.70;;;;;;5079518;28;20024;-78
2021/07/18 12:31:48;;;;;;;0.80;0.25;;;32.00;64.10;;;;;;5078814;28;20029;-77
2021/07/18 12:34:16;;;;;;;0.20;0.00;;;31.60;61.80;;;;;;5077482;28;20033;-77
2021/07/18 12:37:03;;;;;;;0.40;0.10;;;31.80;62.90;;;;;;5069043;28;20032;-77
2021/07/18 12:39:40;;;;;;;0.57;0.00;;;31.80;63.90;;;;;;5060703;28;20449;-78
2021/07/18 12:42:27;;;;;;;0.55;0.00;;;32.00;60.20;;;;;;5059485;28;20017;-77
2021/07/18 12:44:54;;;;;;;0.70;0.00;;;31.90;64.60;;;;;;5052388;28;20037;-78
2021/07/18 12:47:27;;;;;;;5.18;0.55;;;32.10;64.40;;;;;;5061123;28;20391;-77
2021/07/18 12:50:08;;;;;;;0.55;0.00;;;32.30;62.80;;;;;;5058967;28;20028;-78